KMTP/MTP METAR and TAF weather

Enter ICAO airport designator
Station Type Date Time Source
KMTP METAR 2020/04/03 21:54 UTC NOAA

KMTP 032154Z AUTO 03016G28KT 09/04 A2966 RMK AO1 PK WND 03033/2129 SLP044 T00890044


Station Type Date Time Source
KMTP Decoded METAR 2020/04/03 21:54 UTC NOAA

MONTAUK AIRPORT, NY, United States (KMTP) 41-04N 071-55W 2M
Apr 03, 2020 - 05:54 PM EDT / 2020.04.03 2154 UTC
Wind: from the NNE (030 degrees) at 18 MPH (16 KT) gusting to 32 MPH (28 KT):0
Temperature: 48.0 F (8.9 C)
Dew Point: 39.9 F (4.4 C)
Relative Humidity: 73%
Pressure (altimeter): 29.66 in. Hg (1004 hPa)
ob: KMTP 032154Z AUTO 03016G28KT 09/04 A2966 RMK AO1 PK WND 03033/2129 SLP044 T00890044
cycle: 22

Station Type Date Time Source
KMTP TAF UTC NOAA

Error!

Example: see airport list